createdAt,value
2022-07-27T00:00:43.976Z,7.23
2022-07-27T00:04:00.326Z,7.38
2022-07-27T00:07:18.796Z,7.50
2022-07-27T00:10:35.013Z,7.08
2022-07-27T00:13:51.251Z,6.83
2022-07-27T00:17:07.817Z,6.20
2022-07-27T00:20:27.275Z,6.23
2022-07-27T00:23:42.629Z,6.70
2022-07-27T00:26:58.649Z,6.38
2022-07-27T00:30:16.655Z,7.10
2022-07-27T00:33:32.879Z,7.00
2022-07-27T00:36:48.967Z,7.48
2022-07-27T00:40:04.957Z,7.03
2022-07-27T00:43:21.582Z,6.70
2022-07-27T00:46:38.935Z,6.70
2022-07-27T00:49:55.137Z,6.70
2022-07-27T00:53:11.778Z,6.38
2022-07-27T00:56:28.377Z,6.10
2022-07-27T00:59:45.046Z,5.65
2022-07-27T01:03:02.416Z,5.38
2022-07-27T01:06:23.290Z,5.00
2022-07-27T01:09:51.896Z,4.88
2022-07-27T01:13:12.279Z,5.55
2022-07-27T01:16:27.011Z,5.23
2022-07-27T01:19:44.117Z,5.33
2022-07-27T01:23:00.275Z,5.50
2022-07-27T01:26:16.289Z,5.20
2022-07-27T01:29:32.313Z,5.20
2022-07-27T01:32:48.406Z,5.40
2022-07-27T01:36:05.903Z,5.48
2022-07-27T01:39:23.091Z,4.70
2022-07-27T01:42:39.167Z,4.58
2022-07-27T01:45:55.363Z,5.10
2022-07-27T01:49:12.606Z,4.85
2022-07-27T01:52:28.874Z,5.08
2022-07-27T01:55:45.122Z,5.05
2022-07-27T01:59:01.348Z,4.63
2022-07-27T02:02:17.300Z,5.13
2022-07-27T02:05:34.737Z,4.60
2022-07-27T02:08:50.941Z,5.45
2022-07-27T02:12:20.951Z,5.08
2022-07-27T02:15:43.097Z,5.43
2022-07-27T02:18:57.238Z,4.88
2022-07-27T02:22:13.337Z,5.28
2022-07-27T02:25:29.476Z,5.10
2022-07-27T02:28:45.907Z,5.08
2022-07-27T02:32:02.606Z,5.20
2022-07-27T02:35:20.469Z,5.33
2022-07-27T02:38:36.731Z,5.43
2022-07-27T02:41:52.733Z,5.00
2022-07-27T02:45:09.616Z,5.75
2022-07-27T02:48:25.845Z,5.33
2022-07-27T02:51:41.950Z,5.23
2022-07-27T02:54:59.123Z,5.20
2022-07-27T02:58:15.129Z,5.78
2022-07-27T03:01:31.373Z,5.40
2022-07-27T03:04:47.535Z,5.20
2022-07-27T03:08:03.897Z,5.58
2022-07-27T03:11:19.900Z,6.10
2022-07-27T03:14:35.826Z,6.40
2022-07-27T03:17:51.841Z,7.38
2022-07-27T03:21:07.705Z,6.80
2022-07-27T03:24:24.666Z,6.45
2022-07-27T03:27:40.837Z,6.10
2022-07-27T03:30:56.897Z,6.03
2022-07-27T03:34:12.875Z,6.60
2022-07-27T03:37:29.105Z,6.95
2022-07-27T03:40:46.143Z,6.48
2022-07-27T03:44:02.091Z,6.78
2022-07-27T03:47:18.242Z,7.10
2022-07-27T03:50:34.427Z,6.15
2022-07-27T03:53:50.310Z,6.53
2022-07-27T03:57:06.491Z,6.93
2022-07-27T04:00:23.989Z,6.35
2022-07-27T04:03:44.138Z,7.60
2022-07-27T04:06:57.956Z,6.58
2022-07-27T04:10:16.252Z,6.83
2022-07-27T04:13:32.346Z,7.00
2022-07-27T04:16:48.798Z,5.83
2022-07-27T04:20:04.972Z,6.68
2022-07-27T04:23:21.007Z,6.15
2022-07-27T04:26:37.804Z,5.98
2022-07-27T04:29:54.002Z,6.40
2022-07-27T04:33:10.181Z,6.58
2022-07-27T04:36:26.316Z,6.18
2022-07-27T04:39:42.091Z,6.28
2022-07-27T04:42:58.024Z,6.73
2022-07-27T04:46:16.007Z,6.50
2022-07-27T04:49:32.022Z,6.40
2022-07-27T04:52:48.033Z,6.45
2022-07-27T04:56:04.053Z,7.25
2022-07-27T04:59:20.048Z,7.10
2022-07-27T05:02:35.997Z,7.23
2022-07-27T05:05:51.956Z,7.28
2022-07-27T05:09:08.565Z,7.20
2022-07-27T05:12:24.941Z,7.73
2022-07-27T05:15:55.045Z,7.80
2022-07-27T05:19:00.264Z,8.43
2022-07-27T05:22:16.444Z,8.53
2022-07-27T05:25:32.689Z,8.78
2022-07-27T05:28:49.006Z,7.88
2022-07-27T05:32:05.838Z,9.48
2022-07-27T05:35:22.234Z,9.30
2022-07-27T05:38:40.021Z,9.80
2022-07-27T05:41:55.993Z,10.18
2022-07-27T05:45:14.552Z,9.78
2022-07-27T05:48:30.933Z,9.88
2022-07-27T05:51:47.145Z,10.25
2022-07-27T05:55:03.207Z,9.23
2022-07-27T05:58:19.482Z,9.63
2022-07-27T06:04:51.036Z,9.15
2022-07-27T06:08:09.643Z,10.73
2022-07-27T06:11:25.845Z,10.23
2022-07-27T06:14:42.089Z,10.33
2022-07-27T06:17:58.548Z,10.20
2022-07-27T06:21:14.619Z,10.15
2022-07-27T06:24:31.034Z,10.78
2022-07-27T06:27:47.197Z,10.25
2022-07-27T06:31:03.537Z,9.58
2022-07-27T06:34:21.271Z,10.53
2022-07-27T06:37:41.920Z,10.43
2022-07-27T06:40:58.614Z,9.35
2022-07-27T06:44:14.874Z,11.03
2022-07-27T06:47:30.724Z,10.33
2022-07-27T06:50:47.068Z,9.83
2022-07-27T06:54:03.737Z,10.30
2022-07-27T06:57:19.828Z,11.53
2022-07-27T07:00:36.000Z,11.65
2022-07-27T07:03:52.268Z,11.50
2022-07-27T07:07:09.208Z,12.73
2022-07-27T07:10:25.991Z,12.25
2022-07-27T07:13:45.027Z,11.38
2022-07-27T07:17:02.476Z,11.27
2022-07-27T07:20:20.689Z,11.28
2022-07-27T07:23:37.536Z,11.53
2022-07-27T07:26:53.861Z,11.05
2022-07-27T07:30:10.698Z,11.78
2022-07-27T07:33:27.781Z,12.68
2022-07-27T07:36:45.644Z,10.93
2022-07-27T07:40:41.988Z,12.20
2022-07-27T07:43:22.932Z,11.58
2022-07-27T07:46:42.742Z,11.50
2022-07-27T07:49:59.875Z,10.10
2022-07-27T07:53:16.014Z,10.90
2022-07-27T07:56:32.235Z,10.05
2022-07-27T07:59:48.374Z,10.85
2022-07-27T08:03:05.639Z,11.98
2022-07-27T08:06:22.537Z,12.60
2022-07-27T08:09:38.931Z,12.73
2022-07-27T08:13:00.966Z,11.88
2022-07-27T08:16:19.653Z,11.35
2022-07-27T08:19:40.386Z,12.28
2022-07-27T08:22:58.731Z,12.65
2022-07-27T08:26:15.090Z,12.50
2022-07-27T08:29:36.814Z,13.53
2022-07-27T08:33:04.678Z,12.57
2022-07-27T08:36:20.910Z,11.95
2022-07-27T08:43:23.804Z,12.30
2022-07-27T08:47:02.900Z,10.18
2022-07-27T08:50:43.520Z,9.65
2022-07-27T08:54:14.003Z,10.38
2022-07-27T08:57:34.178Z,8.28
2022-07-27T09:01:22.918Z,10.00
2022-07-27T09:04:56.847Z,9.88
2022-07-27T09:13:40.885Z,8.23
2022-07-27T09:17:47.987Z,8.83
2022-07-27T09:21:12.822Z,12.38
2022-07-27T09:24:46.033Z,8.15
2022-07-27T09:27:50.038Z,7.38
2022-07-27T09:31:15.261Z,7.43
2022-07-27T09:34:40.075Z,8.18
2022-07-27T09:37:56.754Z,8.50
2022-07-27T09:41:14.940Z,8.00
2022-07-27T09:44:48.361Z,8.88
2022-07-27T09:48:19.092Z,9.38
2022-07-27T09:54:59.483Z,8.13
2022-07-27T09:58:29.838Z,8.60
2022-07-27T10:01:54.344Z,8.15
2022-07-27T10:05:08.338Z,20.18
2022-07-27T10:08:24.990Z,9.40
2022-07-27T10:11:41.074Z,6.90
2022-07-27T10:14:57.433Z,6.15
2022-07-27T10:18:18.556Z,7.00
2022-07-27T10:21:35.778Z,7.35
2022-07-27T10:24:56.121Z,7.80
2022-07-27T10:28:21.716Z,8.18
2022-07-27T10:31:41.937Z,7.80
2022-07-27T10:34:58.280Z,8.33
2022-07-27T10:38:22.494Z,7.15
2022-07-27T10:41:41.168Z,7.28
2022-07-27T10:45:10.042Z,6.48
2022-07-27T10:48:49.057Z,6.43
2022-07-27T10:52:07.902Z,6.95
2022-07-27T10:55:57.246Z,6.25
2022-07-27T10:59:13.460Z,5.58
2022-07-27T11:02:41.507Z,6.15
2022-07-27T11:06:31.896Z,5.85
2022-07-27T11:10:03.050Z,5.05
2022-07-27T11:12:49.731Z,5.15
2022-07-27T11:16:26.999Z,4.80
2022-07-27T11:19:34.935Z,4.70
2022-07-27T11:26:11.930Z,15.40
2022-07-27T11:29:31.112Z,7.25
2022-07-27T11:32:47.614Z,5.28
2022-07-27T11:36:07.463Z,4.68
2022-07-27T11:39:58.838Z,4.58
2022-07-27T11:42:51.425Z,5.08
2022-07-27T11:46:21.278Z,4.53
2022-07-27T11:49:40.829Z,4.70
2022-07-27T11:53:04.694Z,4.43
2022-07-27T11:56:28.775Z,4.70
2022-07-27T11:59:46.912Z,5.10
2022-07-27T12:03:03.075Z,4.55
2022-07-27T12:06:20.068Z,5.23
2022-07-27T12:09:39.010Z,4.30
2022-07-27T12:12:57.659Z,4.13
2022-07-27T12:16:18.333Z,4.63
2022-07-27T12:19:35.484Z,4.13
2022-07-27T12:22:55.693Z,4.50
2022-07-27T12:26:32.187Z,4.60
2022-07-27T12:30:13.831Z,4.60
2022-07-27T12:33:39.883Z,4.70
2022-07-27T12:36:56.456Z,5.28
2022-07-27T12:40:21.169Z,4.58
2022-07-27T12:43:37.464Z,4.45
2022-07-27T12:47:07.529Z,4.25
2022-07-27T12:50:28.256Z,5.10
2022-07-27T12:53:46.175Z,4.85
2022-07-27T12:57:02.996Z,7.20
2022-07-27T13:00:29.405Z,4.90
2022-07-27T13:03:43.269Z,4.63
2022-07-27T13:06:59.656Z,4.08
2022-07-27T13:10:19.943Z,5.10
2022-07-27T13:13:35.953Z,4.75
2022-07-27T13:16:52.080Z,4.70
2022-07-27T13:20:08.776Z,9.58
2022-07-27T13:23:25.094Z,6.05
2022-07-27T13:26:41.953Z,6.93
2022-07-27T13:29:58.588Z,5.50
2022-07-27T13:33:15.059Z,5.00
2022-07-27T13:36:31.281Z,4.30
2022-07-27T13:39:48.214Z,3.93
2022-07-27T13:43:09.265Z,4.43
2022-07-27T13:46:25.942Z,4.10
2022-07-27T13:49:42.423Z,3.63
2022-07-27T13:52:59.298Z,4.35
2022-07-27T13:56:17.166Z,4.60
2022-07-27T13:59:35.476Z,36.58
2022-07-27T14:02:53.880Z,15.60
2022-07-27T14:06:13.764Z,7.48
2022-07-27T14:09:32.701Z,5.08
2022-07-27T14:12:48.872Z,4.45
2022-07-27T14:16:07.449Z,6.18
2022-07-27T14:22:37.525Z,4.70
2022-07-27T14:25:55.876Z,4.90
2022-07-27T14:29:12.140Z,4.38
2022-07-27T14:32:28.750Z,4.23
2022-07-27T14:35:44.866Z,4.80
2022-07-27T14:39:00.979Z,4.65
2022-07-27T14:42:19.278Z,4.63
2022-07-27T14:45:44.048Z,4.53
2022-07-27T14:49:09.910Z,4.50
2022-07-27T14:52:14.339Z,4.05
2022-07-27T14:55:30.692Z,4.17
2022-07-27T14:58:47.167Z,4.10
2022-07-27T15:02:03.638Z,4.60
2022-07-27T15:05:21.484Z,4.78
2022-07-27T15:08:37.733Z,4.75
2022-07-27T15:11:54.372Z,4.50
2022-07-27T15:15:12.625Z,4.88
2022-07-27T15:18:31.104Z,4.95
2022-07-27T15:21:47.833Z,4.58
2022-07-27T15:25:04.128Z,4.50
2022-07-27T15:28:20.585Z,5.00
2022-07-27T15:31:37.395Z,5.75
2022-07-27T15:34:53.801Z,5.55
2022-07-27T15:38:10.012Z,5.03
2022-07-27T15:41:26.077Z,5.60
2022-07-27T15:44:43.485Z,5.08
2022-07-27T15:47:59.763Z,5.13
2022-07-27T15:51:15.971Z,5.23
2022-07-27T15:54:34.872Z,4.75
2022-07-27T15:57:50.242Z,4.88
2022-07-27T16:01:08.313Z,4.48
2022-07-27T16:04:26.894Z,4.75
2022-07-27T16:07:43.102Z,4.55
2022-07-27T16:10:59.285Z,5.10
2022-07-27T16:14:15.656Z,4.60
2022-07-27T16:17:31.961Z,4.70
2022-07-27T16:20:48.692Z,7.83
2022-07-27T16:24:05.998Z,5.28
2022-07-27T16:27:22.118Z,5.40
2022-07-27T16:30:38.528Z,5.73
2022-07-27T16:33:59.185Z,4.70
2022-07-27T16:37:15.693Z,5.35
2022-07-27T16:40:32.775Z,4.78
2022-07-27T16:43:49.313Z,4.58
2022-07-27T16:47:07.665Z,5.00
2022-07-27T16:50:24.024Z,4.43
2022-07-27T16:53:40.164Z,4.55
2022-07-27T16:56:56.901Z,4.98
2022-07-27T17:00:16.722Z,4.43
2022-07-27T17:03:32.715Z,4.85
2022-07-27T17:06:48.822Z,4.95
2022-07-27T17:10:04.981Z,5.78
2022-07-27T17:13:18.421Z,5.50
2022-07-27T17:16:34.542Z,4.73
2022-07-27T17:19:50.708Z,5.03
2022-07-27T17:23:07.057Z,4.95
2022-07-27T17:26:25.350Z,5.40
2022-07-27T17:29:41.787Z,5.65
2022-07-27T17:32:58.370Z,5.45
2022-07-27T17:36:15.863Z,5.55
2022-07-27T17:39:32.832Z,5.13
2022-07-27T17:42:49.035Z,5.50
2022-07-27T17:46:05.095Z,5.55
2022-07-27T17:49:22.088Z,6.40
2022-07-27T17:52:41.629Z,5.63
2022-07-27T17:55:57.923Z,11.68
2022-07-27T17:59:36.677Z,16.33
2022-07-27T18:02:32.471Z,7.50
2022-07-27T18:05:49.642Z,10.28
2022-07-27T18:09:07.579Z,7.83
2022-07-27T18:12:24.748Z,6.40
2022-07-27T18:15:55.582Z,6.73
2022-07-27T18:19:12.285Z,6.95
2022-07-27T18:22:28.587Z,6.18
2022-07-27T18:25:44.586Z,6.38
2022-07-27T18:29:00.794Z,6.40
2022-07-27T18:32:17.218Z,5.95
2022-07-27T18:35:34.794Z,5.88
2022-07-27T18:38:51.445Z,2.70
2022-07-27T18:42:07.840Z,1.90
2022-07-27T18:45:24.538Z,1.90
2022-07-27T18:48:42.084Z,1.90
2022-07-27T18:51:58.334Z,1.60
2022-07-27T18:55:20.077Z,2.40
2022-07-27T18:58:36.438Z,2.63
2022-07-27T19:01:52.658Z,2.15
2022-07-27T19:05:09.256Z,1.53
2022-07-27T19:08:27.122Z,1.90
2022-07-27T19:11:43.942Z,1.78
2022-07-27T19:14:59.900Z,2.20
2022-07-27T19:18:16.663Z,31.43
2022-07-27T19:21:33.057Z,21.58
2022-07-27T19:24:52.916Z,6.55
2022-07-27T19:28:07.582Z,5.20
2022-07-27T19:31:25.904Z,2.40
2022-07-27T19:34:42.160Z,2.40
2022-07-27T19:37:58.562Z,2.00
2022-07-27T19:41:14.597Z,2.30
2022-07-27T19:44:31.700Z,1.95
2022-07-27T19:47:47.951Z,2.18
2022-07-27T19:51:07.271Z,2.48
2022-07-27T19:54:24.312Z,2.10
2022-07-27T19:57:40.396Z,2.40
2022-07-27T20:00:56.646Z,2.03
2022-07-27T20:04:15.810Z,2.38
2022-07-27T20:10:47.943Z,2.33
2022-07-27T20:14:05.133Z,2.20
2022-07-27T20:17:21.318Z,2.20
2022-07-27T20:20:40.968Z,2.30
2022-07-27T20:23:59.433Z,2.35
2022-07-27T20:27:16.444Z,7.43
2022-07-27T20:30:33.450Z,3.53
2022-07-27T20:33:49.768Z,2.70
2022-07-27T20:37:05.822Z,3.05
2022-07-27T20:40:22.601Z,2.90
2022-07-27T20:43:38.735Z,2.90
2022-07-27T20:46:55.789Z,2.48
2022-07-27T20:50:13.603Z,2.05
2022-07-27T20:53:29.658Z,2.10
2022-07-27T20:56:45.877Z,2.38
2022-07-27T21:00:01.962Z,3.73
2022-07-27T21:03:18.074Z,3.15
2022-07-27T21:06:34.404Z,2.70
2022-07-27T21:09:50.908Z,2.70
2022-07-27T21:13:07.001Z,2.38
2022-07-27T21:16:23.158Z,2.48
2022-07-27T21:19:39.391Z,2.30
2022-07-27T21:22:57.301Z,2.40
2022-07-27T21:26:15.449Z,1.90
2022-07-27T21:29:32.043Z,2.03
2022-07-27T21:32:48.509Z,2.10
2022-07-27T21:36:04.725Z,2.20
2022-07-27T21:39:21.704Z,2.05
2022-07-27T21:42:38.446Z,2.30
2022-07-27T21:45:54.482Z,2.28
2022-07-27T21:49:10.934Z,2.18
2022-07-27T21:52:27.092Z,1.85
2022-07-27T21:55:44.039Z,2.28
2022-07-27T21:59:00.326Z,1.85
2022-07-27T22:02:16.406Z,1.80
2022-07-27T22:05:32.958Z,1.98
2022-07-27T22:08:49.558Z,1.80
2022-07-27T22:12:05.637Z,2.00
2022-07-27T22:15:22.182Z,2.25
2022-07-27T22:18:38.435Z,2.10
2022-07-27T22:21:54.624Z,2.00
2022-07-27T22:25:12.276Z,1.70
2022-07-27T22:28:28.454Z,2.08
2022-07-27T22:31:44.709Z,2.15
2022-07-27T22:35:01.137Z,1.98
2022-07-27T22:38:17.379Z,2.33
2022-07-27T22:41:33.531Z,2.08
2022-07-27T22:44:49.729Z,2.00
2022-07-27T22:48:05.871Z,1.90
2022-07-27T22:51:22.569Z,2.10
2022-07-27T22:54:39.908Z,1.63
2022-07-27T22:57:56.171Z,1.90
2022-07-27T23:01:45.403Z,2.48
2022-07-27T23:04:30.258Z,2.10
2022-07-27T23:07:46.370Z,2.08
2022-07-27T23:11:02.607Z,2.43
2022-07-27T23:14:19.277Z,2.28
2022-07-27T23:17:35.603Z,2.55
2022-07-27T23:20:52.199Z,1.80
2022-07-27T23:24:08.554Z,1.93
2022-07-27T23:27:26.111Z,1.98
2022-07-27T23:30:42.245Z,1.90
2022-07-27T23:33:58.663Z,2.00
2022-07-27T23:37:15.737Z,1.55
2022-07-27T23:40:32.221Z,1.75
2022-07-27T23:43:48.342Z,1.80
2022-07-27T23:47:05.282Z,1.75
2022-07-27T23:50:22.068Z,1.50
2022-07-27T23:53:38.185Z,1.73
2022-07-27T23:56:54.215Z,1.75
